Time,TemperatureF,DewpointF,PressureIn,WindDirection,WindDirectionDegrees,WindSpeedMPH,WindSpeedGustMPH,Humidity,HourlyPrecipIn,Conditions,Clouds,dailyrainin,SoftwareType,DateUTC
2013-03-22 00:02:00,52.3,47.9,29.81,SE,126,0.0,0.0,85,0.00,,---,0.00,VWS V14.01,2013-03-22 07:02:00,
2013-03-22 00:07:00,52.3,47.9,29.81,SE,126,0.0,0.0,85,0.00,,---,0.00,VWS V14.01,2013-03-22 07:07:00,
2013-03-22 00:12:00,52.2,48.2,29.80,SE,127,1.0,1.0,86,0.00,,---,0.00,VWS V14.01,2013-03-22 07:12:00,
2013-03-22 00:17:00,52.2,48.2,29.80,SE,127,0.0,3.0,86,0.00,,---,0.00,VWS V14.01,2013-03-22 07:17:00,
2013-03-22 00:22:00,52.2,48.2,29.80,SE,126,0.0,3.0,86,0.00,,---,0.00,VWS V14.01,2013-03-22 07:22:00,
2013-03-22 00:27:00,52.2,48.5,29.80,SE,126,0.0,3.0,87,0.00,,---,0.00,VWS V14.01,2013-03-22 07:27:00,
2013-03-22 00:32:00,52.1,48.4,29.80,SSE,147,0.0,0.0,87,0.00,,---,0.00,VWS V14.01,2013-03-22 07:32:00,
2013-03-22 00:37:00,52.1,48.4,29.80,SSE,147,0.0,0.0,87,0.00,,---,0.00,VWS V14.01,2013-03-22 07:37:00,
2013-03-22 00:42:00,52.0,48.3,29.80,SSE,147,0.0,0.0,87,0.00,,---,0.00,VWS V14.01,2013-03-22 07:42:00,
2013-03-22 00:47:00,52.0,48.3,29.79,SSE,147,0.0,0.0,87,0.00,,---,0.00,VWS V14.01,2013-03-22 07:47:00,
2013-03-22 00:52:00,52.1,48.7,29.79,SE,146,0.0,0.0,88,0.00,,---,0.00,VWS V14.01,2013-03-22 07:52:00,
2013-03-22 00:57:00,52.2,48.8,29.80,SSE,147,0.0,0.0,88,0.00,,---,0.00,VWS V14.01,2013-03-22 07:57:00,
2013-03-22 01:02:00,52.2,48.8,29.80,SSE,152,0.0,0.0,88,0.00,,---,0.00,VWS V14.01,2013-03-22 08:02:00,
2013-03-22 01:07:00,52.2,48.8,29.80,SSE,153,0.0,0.0,88,0.00,,---,0.00,VWS V14.01,2013-03-22 08:07:00,
2013-03-22 01:12:00,52.2,48.8,29.80,SSE,152,0.0,0.0,88,0.00,,---,0.00,VWS V14.01,2013-03-22 08:12:00,
2013-03-22 01:17:00,52.2,48.8,29.80,SSE,152,0.0,0.0,88,0.00,,---,0.00,VWS V14.01,2013-03-22 08:17:00,
2013-03-22 01:22:00,52.3,49.2,29.79,SSE,153,0.0,0.0,89,0.00,,---,0.00,VWS V14.01,2013-03-22 08:22:00,
2013-03-22 01:27:00,52.3,49.2,29.79,SSE,153,0.0,0.0,89,0.00,,---,0.00,VWS V14.01,2013-03-22 08:27:00,
2013-03-22 01:32:00,52.2,49.1,29.79,SSE,153,0.0,0.0,89,0.00,,---,0.00,VWS V14.01,2013-03-22 08:32:00,
2013-03-22 01:37:00,52.1,49.0,29.80,SSE,153,0.0,0.0,89,0.00,,---,0.00,VWS V14.01,2013-03-22 08:37:00,
2013-03-22 01:42:00,52.1,49.0,29.80,SSE,153,0.0,0.0,89,0.00,,---,0.00,VWS V14.01,2013-03-22 08:42:00,
2013-03-22 01:47:00,52.1,49.0,29.81,SSE,153,0.0,0.0,89,0.00,,---,0.00,VWS V14.01,2013-03-22 08:47:00,
2013-03-22 01:52:00,52.1,49.0,29.81,SSE,153,0.0,0.0,89,0.00,,---,0.00,VWS V14.01,2013-03-22 08:52:00,
2013-03-22 01:58:00,51.7,48.3,29.80,SSE,153,0.0,0.0,88,0.00,,---,0.00,VWS V14.01,2013-03-22 08:58:00,
2013-03-22 02:03:00,51.4,48.0,29.80,SSE,153,0.0,0.0,88,0.00,,---,0.00,VWS V14.01,2013-03-22 09:03:00,
2013-03-22 02:08:00,51.4,48.0,29.80,SSE,153,0.0,0.0,88,0.00,,---,0.00,VWS V14.01,2013-03-22 09:08:00,
2013-03-22 02:12:00,51.4,48.0,29.81,SSE,153,0.0,0.0,88,0.00,,---,0.00,VWS V14.01,2013-03-22 09:12:00,
2013-03-22 02:18:00,51.6,48.5,29.80,SSE,153,0.0,0.0,89,0.00,,---,0.00,VWS V14.01,2013-03-22 09:18:00,
2013-03-22 02:23:00,51.9,48.8,29.80,SSE,153,0.0,0.0,89,0.00,,---,0.00,VWS V14.01,2013-03-22 09:23:00,
2013-03-22 02:28:00,52.1,49.0,29.80,SSE,153,0.0,0.0,89,0.00,,---,0.00,VWS V14.01,2013-03-22 09:28:00,
2013-03-22 02:33:00,52.0,48.9,29.80,SSE,153,0.0,0.0,89,0.00,,---,0.00,VWS V14.01,2013-03-22 09:33:00,
2013-03-22 02:38:00,52.1,49.0,29.80,SSE,152,0.0,0.0,89,0.00,,---,0.00,VWS V14.01,2013-03-22 09:38:00,
2013-03-22 02:43:00,52.1,49.0,29.80,SSE,153,0.0,0.0,89,0.00,,---,0.00,VWS V14.01,2013-03-22 09:43:00,
2013-03-22 02:48:00,52.0,48.9,29.80,SSE,154,0.0,0.0,89,0.00,,---,0.00,VWS V14.01,2013-03-22 09:48:00,
2013-03-22 02:53:00,52.0,48.9,29.80,SSE,153,0.0,0.0,89,0.00,,---,0.00,VWS V14.01,2013-03-22 09:53:00,
2013-03-22 02:58:00,52.0,48.9,29.79,SSE,153,0.0,0.0,89,0.00,,---,0.00,VWS V14.01,2013-03-22 09:58:00,
2013-03-22 03:03:00,52.0,48.9,29.80,SSE,153,0.0,0.0,89,0.00,,---,0.00,VWS V14.01,2013-03-22 10:03:00,
2013-03-22 03:08:00,51.8,48.4,29.79,SSE,153,0.0,0.0,88,0.00,,---,0.00,VWS V14.01,2013-03-22 10:08:00,
2013-03-22 03:13:00,51.7,48.3,29.79,SSE,153,0.0,0.0,88,0.00,,---,0.00,VWS V14.01,2013-03-22 10:13:00,
2013-03-22 03:18:00,51.8,48.4,29.79,ENE,63,2.0,4.0,88,0.00,,---,0.00,VWS V14.01,2013-03-22 10:18:00,
2013-03-22 03:23:00,51.9,48.5,29.79,ENE,63,3.0,4.0,88,0.00,,---,0.00,VWS V14.01,2013-03-22 10:23:00,
2013-03-22 03:28:00,51.9,48.5,29.78,ENE,60,1.0,5.0,88,0.00,,---,0.00,VWS V14.01,2013-03-22 10:28:00,
2013-03-22 03:33:00,51.9,48.5,29.78,ENE,59,3.0,5.0,88,0.00,,---,0.00,VWS V14.01,2013-03-22 10:33:00,
2013-03-22 03:38:00,51.9,48.2,29.78,ENE,59,3.0,5.0,87,0.00,,---,0.00,VWS V14.01,2013-03-22 10:38:00,
2013-03-22 03:43:00,52.0,48.3,29.78,ENE,59,4.0,5.0,87,0.00,,---,0.00,VWS V14.01,2013-03-22 10:43:00,
2013-03-22 03:48:00,52.1,48.4,29.78,ENE,59,1.0,5.0,87,0.00,,---,0.00,VWS V14.01,2013-03-22 10:48:00,
2013-03-22 03:53:00,52.1,48.4,29.78,ENE,59,2.0,5.0,87,0.00,,---,0.00,VWS V14.01,2013-03-22 10:53:00,
2013-03-22 03:58:00,52.1,48.4,29.78,ENE,57,0.0,5.0,87,0.00,,---,0.00,VWS V14.01,2013-03-22 10:58:00,
2013-03-22 04:03:00,52.1,48.4,29.78,ENE,61,3.0,5.0,87,0.00,,---,0.00,VWS V14.01,2013-03-22 11:03:00,
2013-03-22 04:08:00,52.2,48.2,29.78,ENE,60,1.0,5.0,86,0.00,,---,0.00,VWS V14.01,2013-03-22 11:08:00,
2013-03-22 04:13:00,52.2,48.2,29.78,ENE,60,0.0,5.0,86,0.00,,---,0.00,VWS V14.01,2013-03-22 11:13:00,
2013-03-22 04:18:00,52.3,48.2,29.78,ENE,61,3.0,4.0,86,0.00,,---,0.00,VWS V14.01,2013-03-22 11:18:00,
2013-03-22 04:23:00,52.3,48.2,29.78,ENE,61,2.0,5.0,86,0.00,,---,0.00,VWS V14.01,2013-03-22 11:23:00,
2013-03-22 04:28:00,52.4,48.3,29.79,ENE,61,0.0,5.0,86,0.00,,---,0.00,VWS V14.01,2013-03-22 11:28:00,
2013-03-22 04:33:00,52.4,48.3,29.79,ENE,59,5.0,5.0,86,0.00,,---,0.00,VWS V14.01,2013-03-22 11:33:00,
2013-03-22 04:38:00,52.4,48.0,29.79,NE,55,3.0,7.0,85,0.00,,---,0.00,VWS V14.01,2013-03-22 11:38:00,
2013-03-22 04:43:00,52.2,47.5,29.79,NE,52,5.0,7.0,84,0.00,,---,0.00,VWS V14.01,2013-03-22 11:43:00,
2013-03-22 04:48:00,52.1,47.4,29.79,NE,53,3.0,4.0,84,0.00,,---,0.00,VWS V14.01,2013-03-22 11:48:00,
2013-03-22 04:53:00,52.0,47.3,29.78,NE,53,4.0,5.0,84,0.00,,---,0.00,VWS V14.01,2013-03-22 11:53:00,
2013-03-22 04:58:00,51.9,47.2,29.79,ENE,63,0.0,6.0,84,0.00,,---,0.00,VWS V14.01,2013-03-22 11:58:00,
2013-03-22 05:03:00,51.9,47.2,29.79,ENE,63,2.0,3.0,84,0.00,,---,0.00,VWS V14.01,2013-03-22 12:03:00,
2013-03-22 05:08:00,51.9,47.2,29.79,ENE,61,3.0,5.0,84,0.00,,---,0.00,VWS V14.01,2013-03-22 12:08:00,
2013-03-22 05:13:00,52.0,47.3,29.79,ENE,63,0.0,5.0,84,0.00,,---,0.00,VWS V14.01,2013-03-22 12:13:00,
2013-03-22 05:18:00,52.1,47.4,29.79,ENE,63,2.0,3.0,84,0.00,,---,0.00,VWS V14.01,2013-03-22 12:18:00,
2013-03-22 05:23:00,52.2,47.5,29.79,ENE,63,3.0,4.0,84,0.00,,---,0.00,VWS V14.01,2013-03-22 12:23:00,
2013-03-22 05:28:00,52.2,47.5,29.79,ENE,63,2.0,4.0,84,0.00,,---,0.00,VWS V14.01,2013-03-22 12:28:00,
2013-03-22 05:33:00,52.2,47.2,29.79,ENE,63,0.0,4.0,83,0.00,,---,0.00,VWS V14.01,2013-03-22 12:33:00,
2013-03-22 05:38:00,52.2,47.2,29.79,ENE,63,0.0,4.0,83,0.00,,---,0.00,VWS V14.01,2013-03-22 12:38:00,
2013-03-22 05:43:00,52.2,47.2,29.79,ENE,63,0.0,4.0,83,0.00,,---,0.00,VWS V14.01,2013-03-22 12:43:00,
2013-03-22 05:48:00,52.1,47.1,29.79,ENE,63,0.0,0.0,83,0.00,,---,0.00,VWS V14.01,2013-03-22 12:48:00,
2013-03-22 05:53:00,52.3,47.3,29.79,ENE,63,0.0,0.0,83,0.00,,---,0.00,VWS V14.01,2013-03-22 12:53:00,
2013-03-22 05:58:00,52.3,47.3,29.79,ENE,63,0.0,0.0,83,0.00,,---,0.00,VWS V14.01,2013-03-22 12:58:00,
2013-03-22 06:03:00,52.4,47.4,29.80,ENE,64,3.0,4.0,83,0.00,,---,0.00,VWS V14.01,2013-03-22 13:03:00,
2013-03-22 06:08:00,52.5,47.5,29.80,ENE,65,0.0,4.0,83,0.00,,---,0.00,VWS V14.01,2013-03-22 13:08:00,
2013-03-22 06:13:00,52.5,47.5,29.80,ENE,65,0.0,4.0,83,0.00,,---,0.00,VWS V14.01,2013-03-22 13:13:00,
2013-03-22 06:18:00,52.6,47.3,29.80,ENE,65,0.0,0.0,82,0.00,,---,0.00,VWS V14.01,2013-03-22 13:18:00,
2013-03-22 06:23:00,52.5,47.2,29.81,ENE,65,2.0,4.0,82,0.00,,---,0.00,VWS V14.01,2013-03-22 13:23:00,
2013-03-22 06:28:00,52.4,47.1,29.81,ENE,65,1.0,4.0,82,0.00,,---,0.00,VWS V14.01,2013-03-22 13:28:00,
2013-03-22 06:33:00,52.3,46.7,29.81,ENE,65,0.0,3.0,81,0.00,,---,0.00,VWS V14.01,2013-03-22 13:33:00,
2013-03-22 06:38:00,52.3,47.0,29.81,ENE,65,0.0,3.0,82,0.00,,---,0.00,VWS V14.01,2013-03-22 13:38:00,
2013-03-22 06:43:00,52.3,46.7,29.82,ENE,65,0.0,4.0,81,0.00,,---,0.00,VWS V14.01,2013-03-22 13:43:00,
2013-03-22 06:48:00,52.2,46.9,29.82,ENE,64,3.0,4.0,82,0.00,,---,0.00,VWS V14.01,2013-03-22 13:48:00,
2013-03-22 06:53:00,52.3,46.7,29.82,ENE,65,0.0,4.0,81,0.00,,---,0.00,VWS V14.01,2013-03-22 13:53:00,
2013-03-22 06:58:00,52.3,47.0,29.82,ENE,65,0.0,4.0,82,0.00,,---,0.00,VWS V14.01,2013-03-22 13:58:00,
2013-03-22 07:03:00,52.3,47.0,29.83,ENE,65,0.0,1.0,82,0.00,,---,0.00,VWS V14.01,2013-03-22 14:03:00,
2013-03-22 07:08:00,52.4,47.1,29.82,ENE,65,0.0,4.0,82,0.00,,---,0.00,VWS V14.01,2013-03-22 14:08:00,
2013-03-22 07:13:00,52.4,47.1,29.83,ENE,65,4.0,4.0,82,0.00,,---,0.00,VWS V14.01,2013-03-22 14:13:00,
2013-03-22 07:18:00,52.5,47.2,29.83,ENE,71,0.0,4.0,82,0.00,,---,0.00,VWS V14.01,2013-03-22 14:18:00,
2013-03-22 07:23:00,52.6,47.3,29.83,ENE,77,2.0,4.0,82,0.00,,---,0.00,VWS V14.01,2013-03-22 14:23:00,
2013-03-22 07:28:00,52.6,47.3,29.83,ENE,76,0.0,4.0,82,0.00,,---,0.00,VWS V14.01,2013-03-22 14:28:00,
2013-03-22 07:33:00,52.5,47.2,29.83,East,79,2.0,4.0,82,0.00,,---,0.00,VWS V14.01,2013-03-22 14:33:00,
2013-03-22 07:38:00,52.6,47.3,29.83,East,80,0.0,4.0,82,0.00,,---,0.00,VWS V14.01,2013-03-22 14:38:00,
2013-03-22 07:43:00,52.6,47.3,29.83,East,80,0.0,4.0,82,0.00,,---,0.00,VWS V14.01,2013-03-22 14:43:00,
2013-03-22 07:48:00,52.6,47.3,29.83,East,83,0.0,2.0,82,0.00,,---,0.00,VWS V14.01,2013-03-22 14:48:00,
2013-03-22 07:53:00,52.7,47.4,29.83,East,84,0.0,2.0,82,0.00,,---,0.00,VWS V14.01,2013-03-22 14:53:00,
2013-03-22 07:58:00,52.9,47.6,29.84,East,84,0.0,4.0,82,0.00,,---,0.00,VWS V14.01,2013-03-22 14:58:00,
2013-03-22 08:03:00,53.1,47.8,29.83,SE,145,4.0,5.0,82,0.00,,---,0.00,VWS V14.01,2013-03-22 15:03:00,
2013-03-22 08:08:00,53.2,47.5,29.83,SE,145,0.0,6.0,81,0.00,,---,0.00,VWS V14.01,2013-03-22 15:08:00,
2013-03-22 08:13:00,53.3,47.6,29.83,SE,128,0.0,6.0,81,0.00,,---,0.00,VWS V14.01,2013-03-22 15:13:00,
2013-03-22 08:18:00,53.5,47.8,29.84,SE,128,0.0,0.0,81,0.00,,---,0.00,VWS V14.01,2013-03-22 15:18:00,
2013-03-22 08:23:00,53.6,47.6,29.83,SE,128,0.0,0.0,80,0.00,,---,0.00,VWS V14.01,2013-03-22 15:23:00,
2013-03-22 08:28:00,53.8,47.8,29.84,SE,128,0.0,0.0,80,0.00,,---,0.00,VWS V14.01,2013-03-22 15:28:00,
2013-03-22 08:33:00,54.0,48.0,29.84,SE,128,0.0,0.0,80,0.00,,---,0.00,VWS V14.01,2013-03-22 15:33:00,
2013-03-22 08:38:00,54.1,47.7,29.84,SE,128,0.0,0.0,79,0.00,,---,0.00,VWS V14.01,2013-03-22 15:38:00,
2013-03-22 08:43:00,54.2,47.8,29.84,SE,128,0.0,0.0,79,0.00,,---,0.00,VWS V14.01,2013-03-22 15:43:00,
2013-03-22 08:48:00,54.3,47.9,29.84,SE,141,0.0,4.0,79,0.00,,---,0.00,VWS V14.01,2013-03-22 15:48:00,
2013-03-22 08:53:00,54.4,48.0,29.84,SE,141,0.0,4.0,79,0.00,,---,0.00,VWS V14.01,2013-03-22 15:53:00,
2013-03-22 08:58:00,54.7,48.7,29.84,WSW,241,2.0,4.0,80,0.00,,---,0.00,VWS V14.01,2013-03-22 15:58:00,
2013-03-22 09:03:00,55.1,49.0,29.84,WSW,249,4.0,5.0,80,0.00,,---,0.00,VWS V14.01,2013-03-22 16:03:00,
2013-03-22 09:08:00,55.2,48.1,29.85,WSW,253,0.0,5.0,77,0.00,,---,0.00,VWS V14.01,2013-03-22 16:08:00,
2013-03-22 09:13:00,55.5,48.4,29.85,WSW,253,0.0,5.0,77,0.00,,---,0.00,VWS V14.01,2013-03-22 16:13:00,
2013-03-22 09:18:00,56.1,49.3,29.86,SW,229,0.0,4.0,78,0.00,,---,0.00,VWS V14.01,2013-03-22 16:18:00,
2013-03-22 09:23:00,56.3,48.8,29.86,SW,229,0.0,4.0,76,0.00,,---,0.00,VWS V14.01,2013-03-22 16:23:00,
2013-03-22 09:28:00,56.8,49.3,29.86,SW,229,0.0,4.0,76,0.00,,---,0.00,VWS V14.01,2013-03-22 16:28:00,
2013-03-22 09:33:00,57.2,49.7,29.86,SW,235,1.0,3.0,76,0.00,,---,0.00,VWS V14.01,2013-03-22 16:33:00,
2013-03-22 09:38:00,57.5,49.7,29.86,SW,236,0.0,3.0,75,0.00,,---,0.00,VWS V14.01,2013-03-22 16:38:00,
2013-03-22 09:44:00,58.2,50.0,29.87,WSW,252,0.0,4.0,74,0.00,,---,0.00,VWS V14.01,2013-03-22 16:44:00,
2013-03-22 09:48:00,58.5,49.9,29.86,WSW,254,4.0,5.0,73,0.00,,---,0.00,VWS V14.01,2013-03-22 16:48:00,
2013-03-22 09:53:00,58.4,49.4,29.86,West,274,0.0,5.0,72,0.00,,---,0.00,VWS V14.01,2013-03-22 16:53:00,
2013-03-22 09:58:00,58.4,49.4,29.86,West,275,0.0,5.0,72,0.00,,---,0.00,VWS V14.01,2013-03-22 16:58:00,
2013-03-22 10:04:00,58.4,49.4,29.86,West,277,4.0,4.0,72,0.00,,---,0.00,VWS V14.01,2013-03-22 17:04:00,
2013-03-22 10:09:00,58.8,50.2,29.86,WNW,283,0.0,5.0,73,0.00,,---,0.00,VWS V14.01,2013-03-22 17:09:00,
2013-03-22 10:14:00,59.0,50.0,29.86,West,260,0.0,5.0,72,0.00,,---,0.00,VWS V14.01,2013-03-22 17:14:00,
2013-03-22 10:19:00,59.5,50.8,29.86,West,259,4.0,4.0,73,0.00,,---,0.00,VWS V14.01,2013-03-22 17:19:00,
2013-03-22 10:24:00,59.9,49.7,29.86,West,259,2.0,4.0,69,0.00,,---,0.00,VWS V14.01,2013-03-22 17:24:00,
2013-03-22 10:29:00,59.5,48.9,29.85,West,260,0.0,4.0,68,0.00,,---,0.00,VWS V14.01,2013-03-22 17:29:00,
2013-03-22 10:34:00,60.0,49.8,29.85,SW,224,4.0,6.0,69,0.00,,---,0.00,VWS V14.01,2013-03-22 17:34:00,
2013-03-22 10:39:00,60.5,50.7,29.85,West,262,0.0,6.0,70,0.00,,---,0.00,VWS V14.01,2013-03-22 17:39:00,
2013-03-22 10:44:00,61.0,50.8,29.85,West,261,0.0,6.0,69,0.00,,---,0.00,VWS V14.01,2013-03-22 17:44:00,
2013-03-22 10:49:00,61.9,52.0,29.85,SW,227,4.0,6.0,70,0.00,,---,0.00,VWS V14.01,2013-03-22 17:49:00,
2013-03-22 10:54:00,62.2,51.5,29.85,SW,225,2.0,6.0,68,0.00,,---,0.00,VWS V14.01,2013-03-22 17:54:00,
2013-03-22 10:59:00,62.3,51.2,29.85,SW,217,2.0,6.0,67,0.00,,---,0.00,VWS V14.01,2013-03-22 17:59:00,
2013-03-22 11:04:00,62.3,50.4,29.85,SW,218,0.0,1.0,65,0.00,,---,0.00,VWS V14.01,2013-03-22 18:04:00,
2013-03-22 11:09:00,62.7,51.2,29.85,SW,217,2.0,3.0,66,0.00,,---,0.00,VWS V14.01,2013-03-22 18:09:00,
2013-03-22 11:14:00,63.2,52.1,29.85,SW,217,3.0,5.0,67,0.00,,---,0.00,VWS V14.01,2013-03-22 18:14:00,
2013-03-22 11:19:00,63.8,50.5,29.85,NNW,331,0.0,2.0,62,0.00,,---,0.00,VWS V14.01,2013-03-22 18:19:00,
2013-03-22 11:24:00,64.6,51.3,29.85,SSW,211,3.0,4.0,62,0.00,,---,0.00,VWS V14.01,2013-03-22 18:24:00,
2013-03-22 11:29:00,64.9,52.0,29.84,SW,225,0.0,5.0,63,0.00,,---,0.00,VWS V14.01,2013-03-22 18:29:00,
2013-03-22 11:34:00,65.4,52.5,29.85,SSW,196,1.0,3.0,63,0.00,,---,0.00,VWS V14.01,2013-03-22 18:34:00,
2013-03-22 11:39:00,65.9,52.5,29.84,WSW,248,0.0,4.0,62,0.00,,---,0.00,VWS V14.01,2013-03-22 18:39:00,
2013-03-22 11:44:00,65.8,52.4,29.84,West,261,3.0,5.0,62,0.00,,---,0.00,VWS V14.01,2013-03-22 18:44:00,
2013-03-22 11:49:00,65.4,50.7,29.84,WNW,286,2.0,4.0,59,0.00,,---,0.00,VWS V14.01,2013-03-22 18:49:00,
2013-03-22 11:54:00,65.1,52.6,29.84,SW,215,4.0,5.0,64,0.00,,---,0.00,VWS V14.01,2013-03-22 18:54:00,
2013-03-22 11:59:00,65.3,52.8,29.84,West,261,4.0,5.0,64,0.00,,---,0.00,VWS V14.01,2013-03-22 18:59:00,
2013-03-22 12:04:00,65.9,53.0,29.84,SW,228,3.0,6.0,63,0.00,,---,0.00,VWS V14.01,2013-03-22 19:04:00,
2013-03-22 12:09:00,66.3,53.3,29.84,WSW,242,0.0,6.0,63,0.00,,---,0.00,VWS V14.01,2013-03-22 19:09:00,
2013-03-22 12:14:00,66.5,52.7,29.84,SW,219,5.0,8.0,61,0.00,,---,0.00,VWS V14.01,2013-03-22 19:14:00,
2013-03-22 12:19:00,66.6,53.2,29.84,SW,221,6.0,6.0,62,0.00,,---,0.00,VWS V14.01,2013-03-22 19:19:00,
2013-03-22 12:24:00,66.9,53.0,29.84,SW,227,0.0,6.0,61,0.00,,---,0.00,VWS V14.01,2013-03-22 19:24:00,
2013-03-22 12:29:00,67.5,53.1,29.84,SW,233,4.0,6.0,60,0.00,,---,0.00,VWS V14.01,2013-03-22 19:29:00,
2013-03-22 12:34:00,67.9,53.5,29.83,WSW,246,1.0,6.0,60,0.00,,---,0.00,VWS V14.01,2013-03-22 19:34:00,
2013-03-22 12:39:00,68.3,53.9,29.83,West,273,6.0,6.0,60,0.00,,---,0.00,VWS V14.01,2013-03-22 19:39:00,
2013-03-22 12:44:00,68.4,52.1,29.83,WSW,256,2.0,7.0,56,0.00,,---,0.00,VWS V14.01,2013-03-22 19:44:00,
2013-03-22 12:49:00,68.3,53.9,29.83,WSW,257,1.0,10.0,60,0.00,,---,0.00,VWS V14.01,2013-03-22 19:49:00,
2013-03-22 12:54:00,68.3,53.0,29.83,West,275,0.0,10.0,58,0.00,,---,0.00,VWS V14.01,2013-03-22 19:54:00,
2013-03-22 12:59:00,68.2,52.9,29.83,WNW,290,0.0,10.0,58,0.00,,---,0.00,VWS V14.01,2013-03-22 19:59:00,
2013-03-22 13:04:00,68.6,53.2,29.83,SW,226,4.0,7.0,58,0.00,,---,0.00,VWS V14.01,2013-03-22 20:04:00,
2013-03-22 13:09:00,69.3,53.0,29.83,WNW,303,3.0,7.0,56,0.00,,---,0.00,VWS V14.01,2013-03-22 20:09:00,
2013-03-22 13:14:00,69.4,53.5,29.82,WSW,242,4.0,10.0,57,0.00,,---,0.00,VWS V14.01,2013-03-22 20:14:00,
2013-03-22 13:19:00,69.3,54.8,29.82,WSW,244,4.0,7.0,60,0.00,,---,0.00,VWS V14.01,2013-03-22 20:19:00,
2013-03-22 13:24:00,69.0,53.6,29.83,West,275,0.0,10.0,58,0.00,,---,0.00,VWS V14.01,2013-03-22 20:24:00,
2013-03-22 13:29:00,68.8,52.5,29.83,West,271,4.0,10.0,56,0.00,,---,0.00,VWS V14.01,2013-03-22 20:29:00,
2013-03-22 13:34:00,68.6,53.2,29.82,West,277,1.0,6.0,58,0.00,,---,0.00,VWS V14.01,2013-03-22 20:34:00,
2013-03-22 13:39:00,69.0,55.0,29.82,WSW,243,6.0,7.0,61,0.00,,---,0.00,VWS V14.01,2013-03-22 20:39:00,
2013-03-22 13:44:00,69.3,54.8,29.82,WSW,243,5.0,11.0,60,0.00,,---,0.00,VWS V14.01,2013-03-22 20:44:00,
2013-03-22 13:49:00,69.6,56.0,29.81,SW,223,4.0,7.0,62,0.00,,---,0.00,VWS V14.01,2013-03-22 20:49:00,
2013-03-22 13:54:00,69.9,56.3,29.81,WNW,284,3.0,10.0,62,0.00,,---,0.00,VWS V14.01,2013-03-22 20:54:00,
2013-03-22 13:59:00,69.5,55.0,29.81,WSW,254,4.0,12.0,60,0.00,,---,0.00,VWS V14.01,2013-03-22 20:59:00,
2013-03-22 14:04:00,69.3,55.3,29.81,SW,229,7.0,10.0,61,0.00,,---,0.00,VWS V14.01,2013-03-22 21:04:00,
2013-03-22 14:09:00,69.1,55.1,29.81,SSW,212,4.0,10.0,61,0.00,,---,0.00,VWS V14.01,2013-03-22 21:09:00,
2013-03-22 14:14:00,69.4,56.3,29.81,SW,225,6.0,11.0,63,0.00,,---,0.00,VWS V14.01,2013-03-22 21:14:00,
2013-03-22 14:19:00,69.4,55.4,29.81,WSW,241,7.0,12.0,61,0.00,,---,0.00,VWS V14.01,2013-03-22 21:19:00,
2013-03-22 14:24:00,69.1,54.7,29.81,SW,217,5.0,12.0,60,0.00,,---,0.00,VWS V14.01,2013-03-22 21:24:00,
2013-03-22 14:29:00,68.9,54.9,29.81,SW,236,6.0,12.0,61,0.00,,---,0.00,VWS V14.01,2013-03-22 21:29:00,
2013-03-22 14:34:00,68.5,54.5,29.81,West,263,6.0,11.0,61,0.00,,---,0.00,VWS V14.01,2013-03-22 21:34:00,
2013-03-22 14:39:00,68.3,54.3,29.81,WNW,285,3.0,11.0,61,0.00,,---,0.00,VWS V14.01,2013-03-22 21:39:00,
2013-03-22 14:44:00,68.4,55.3,29.81,WSW,238,10.0,11.0,63,0.00,,---,0.00,VWS V14.01,2013-03-22 21:44:00,
2013-03-22 14:49:00,68.6,55.5,29.81,SSW,199,5.0,10.0,63,0.00,,---,0.00,VWS V14.01,2013-03-22 21:49:00,
2013-03-22 14:54:00,68.8,55.3,29.81,West,273,3.0,10.0,62,0.00,,---,0.00,VWS V14.01,2013-03-22 21:54:00,
2013-03-22 14:59:00,69.2,55.6,29.81,WSW,250,6.0,10.0,62,0.00,,---,0.00,VWS V14.01,2013-03-22 21:59:00,
2013-03-22 15:04:00,69.3,55.3,29.81,West,263,3.0,7.0,61,0.00,,---,0.00,VWS V14.01,2013-03-22 22:04:00,
2013-03-22 15:09:00,69.4,54.9,29.81,West,259,6.0,10.0,60,0.00,,---,0.00,VWS V14.01,2013-03-22 22:09:00,
2013-03-22 15:14:00,69.0,55.0,29.81,West,260,7.0,13.0,61,0.00,,---,0.00,VWS V14.01,2013-03-22 22:14:00,
2013-03-22 15:19:00,69.0,54.5,29.81,WSW,244,3.0,8.0,60,0.00,,---,0.00,VWS V14.01,2013-03-22 22:19:00,
2013-03-22 15:24:00,69.1,54.2,29.81,WSW,238,9.0,12.0,59,0.00,,---,0.00,VWS V14.01,2013-03-22 22:24:00,
2013-03-22 15:29:00,69.1,54.7,29.81,SW,223,9.0,12.0,60,0.00,,---,0.00,VWS V14.01,2013-03-22 22:29:00,
2013-03-22 15:34:00,69.0,55.0,29.81,West,261,2.0,7.0,61,0.00,,---,0.00,VWS V14.01,2013-03-22 22:34:00,
2013-03-22 15:39:00,69.0,54.1,29.81,WSW,255,4.0,11.0,59,0.00,,---,0.00,VWS V14.01,2013-03-22 22:39:00,
2013-03-22 15:44:00,68.7,54.3,29.81,West,269,7.0,11.0,60,0.00,,---,0.00,VWS V14.01,2013-03-22 22:44:00,
2013-03-22 15:49:00,68.8,54.4,29.80,SW,222,5.0,9.0,60,0.00,,---,0.00,VWS V14.01,2013-03-22 22:49:00,
2013-03-22 15:54:00,68.8,53.4,29.80,WSW,254,10.0,11.0,58,0.00,,---,0.00,VWS V14.01,2013-03-22 22:54:00,
2013-03-22 15:59:00,68.5,53.2,29.81,West,269,10.0,12.0,58,0.00,,---,0.00,VWS V14.01,2013-03-22 22:59:00,
2013-03-22 16:04:00,68.3,52.5,29.80,SW,232,5.0,9.0,57,0.00,,---,0.00,VWS V14.01,2013-03-22 23:04:00,
2013-03-22 16:09:00,68.4,53.1,29.80,WSW,238,5.0,9.0,58,0.00,,---,0.00,VWS V14.01,2013-03-22 23:09:00,
2013-03-22 16:14:00,68.5,52.2,29.81,WSW,257,1.0,9.0,56,0.00,,---,0.00,VWS V14.01,2013-03-22 23:14:00,
2013-03-22 16:19:00,68.6,53.2,29.80,WSW,248,4.0,10.0,58,0.00,,---,0.00,VWS V14.01,2013-03-22 23:19:00,
2013-03-22 16:24:00,68.5,52.2,29.81,West,263,5.0,10.0,56,0.00,,---,0.00,VWS V14.01,2013-03-22 23:24:00,
2013-03-22 16:29:00,68.4,52.1,29.81,SW,227,4.0,10.0,56,0.00,,---,0.00,VWS V14.01,2013-03-22 23:29:00,
2013-03-22 16:34:00,68.3,53.0,29.81,WSW,238,2.0,6.0,58,0.00,,---,0.00,VWS V14.01,2013-03-22 23:34:00,
2013-03-22 16:39:00,68.1,52.8,29.81,WSW,252,4.0,7.0,58,0.00,,---,0.00,VWS V14.01,2013-03-22 23:39:00,
2013-03-22 16:44:00,67.8,53.4,29.81,West,263,2.0,7.0,60,0.00,,---,0.00,VWS V14.01,2013-03-22 23:44:00,
2013-03-22 16:50:00,67.1,52.3,29.81,WSW,253,5.0,10.0,59,0.00,,---,0.00,VWS V14.01,2013-03-22 23:50:00,
2013-03-22 16:55:00,66.3,51.1,29.82,WNW,301,3.0,10.0,58,0.00,,---,0.00,VWS V14.01,2013-03-22 23:55:00,
2013-03-22 17:00:00,65.8,52.0,29.82,SW,223,6.0,11.0,61,0.00,,---,0.00,VWS V14.01,2013-03-23 00:00:00,
2013-03-22 17:05:00,65.6,51.4,29.82,West,269,1.0,11.0,60,0.00,,---,0.00,VWS V14.01,2013-03-23 00:05:00,
2013-03-22 17:10:00,65.0,51.2,29.82,WSW,250,3.0,11.0,61,0.00,,---,0.00,VWS V14.01,2013-03-23 00:10:00,
2013-03-22 17:15:00,64.4,51.1,29.82,West,259,5.0,11.0,62,0.00,,---,0.00,VWS V14.01,2013-03-23 00:15:00,
2013-03-22 17:20:00,64.0,51.6,29.82,WSW,252,4.0,7.0,64,0.00,,---,0.00,VWS V14.01,2013-03-23 00:20:00,
2013-03-22 17:25:00,63.8,51.4,29.82,West,277,4.0,7.0,64,0.00,,---,0.00,VWS V14.01,2013-03-23 00:25:00,
2013-03-22 17:30:00,63.6,51.2,29.82,WNW,286,3.0,7.0,64,0.00,,---,0.00,VWS V14.01,2013-03-23 00:30:00,
2013-03-22 17:35:00,63.4,51.4,29.82,SW,236,3.0,5.0,65,0.00,,---,0.00,VWS V14.01,2013-03-23 00:35:00,
2013-03-22 17:40:00,63.1,50.7,29.83,West,261,3.0,5.0,64,0.00,,---,0.00,VWS V14.01,2013-03-23 00:40:00,
2013-03-22 17:45:00,62.7,50.4,29.82,WNW,294,0.0,5.0,64,0.00,,---,0.00,VWS V14.01,2013-03-23 00:45:00,
2013-03-22 17:50:00,62.4,50.9,29.83,WSW,252,0.0,4.0,66,0.00,,---,0.00,VWS V14.01,2013-03-23 00:50:00,
2013-03-22 17:55:00,62.3,50.8,29.83,WSW,254,4.0,5.0,66,0.00,,---,0.00,VWS V14.01,2013-03-23 00:55:00,
2013-03-22 18:00:00,62.0,50.5,29.83,WSW,241,4.0,5.0,66,0.00,,---,0.00,VWS V14.01,2013-03-23 01:00:00,
2013-03-22 18:05:00,61.7,50.6,29.83,SW,227,1.0,4.0,67,0.00,,---,0.00,VWS V14.01,2013-03-23 01:05:00,
2013-03-22 18:10:00,61.4,50.8,29.83,SW,234,5.0,5.0,68,0.00,,---,0.00,VWS V14.01,2013-03-23 01:10:00,
2013-03-22 18:15:00,61.2,50.6,29.83,WSW,238,0.0,6.0,68,0.00,,---,0.00,VWS V14.01,2013-03-23 01:15:00,
2013-03-22 18:20:00,60.9,50.3,29.83,WSW,238,2.0,4.0,68,0.00,,---,0.00,VWS V14.01,2013-03-23 01:20:00,
2013-03-22 18:25:00,60.7,50.1,29.83,WSW,238,0.0,4.0,68,0.00,,---,0.00,VWS V14.01,2013-03-23 01:25:00,
2013-03-22 18:30:00,60.5,50.3,29.83,WSW,238,1.0,4.0,69,0.00,,---,0.00,VWS V14.01,2013-03-23 01:30:00,
2013-03-22 18:35:00,60.3,50.1,29.83,WSW,239,3.0,3.0,69,0.00,,---,0.00,VWS V14.01,2013-03-23 01:35:00,
2013-03-22 18:40:00,60.1,49.9,29.83,SW,236,0.0,4.0,69,0.00,,---,0.00,VWS V14.01,2013-03-23 01:40:00,
2013-03-22 18:45:00,59.9,49.7,29.83,SW,236,0.0,4.0,69,0.00,,---,0.00,VWS V14.01,2013-03-23 01:45:00,
2013-03-22 18:50:00,59.7,49.5,29.84,South,175,3.0,4.0,69,0.00,,---,0.00,VWS V14.01,2013-03-23 01:50:00,
2013-03-22 18:55:00,59.5,49.7,29.83,South,182,0.0,4.0,70,0.00,,---,0.00,VWS V14.01,2013-03-23 01:55:00,
2013-03-22 19:00:00,59.3,49.5,29.84,South,178,1.0,5.0,70,0.00,,---,0.00,VWS V14.01,2013-03-23 02:00:00,
2013-03-22 19:05:00,59.0,49.2,29.84,South,174,4.0,4.0,70,0.00,,---,0.00,VWS V14.01,2013-03-23 02:05:00,
2013-03-22 19:10:00,59.0,49.6,29.84,South,169,0.0,7.0,71,0.00,,---,0.00,VWS V14.01,2013-03-23 02:10:00,
2013-03-22 19:15:00,58.7,49.7,29.84,South,169,1.0,7.0,72,0.00,,---,0.00,VWS V14.01,2013-03-23 02:15:00,
2013-03-22 19:20:00,58.3,49.3,29.84,South,169,0.0,5.0,72,0.00,,---,0.00,VWS V14.01,2013-03-23 02:20:00,
2013-03-22 19:25:00,57.9,49.3,29.84,South,169,0.0,5.0,73,0.00,,---,0.00,VWS V14.01,2013-03-23 02:25:00,
2013-03-22 19:30:00,57.7,49.1,29.84,SSE,164,2.0,5.0,73,0.00,,---,0.00,VWS V14.01,2013-03-23 02:30:00,
2013-03-22 19:35:00,57.6,49.8,29.85,SSE,163,0.0,3.0,75,0.00,,---,0.00,VWS V14.01,2013-03-23 02:35:00,
2013-03-22 19:40:00,57.3,49.8,29.85,SSE,164,0.0,5.0,76,0.00,,---,0.00,VWS V14.01,2013-03-23 02:40:00,
2013-03-22 19:45:00,57.1,50.0,29.85,SSE,164,1.0,5.0,77,0.00,,---,0.00,VWS V14.01,2013-03-23 02:45:00,
2013-03-22 19:50:00,56.7,49.6,29.85,SSE,164,0.0,4.0,77,0.00,,---,0.00,VWS V14.01,2013-03-23 02:50:00,
2013-03-22 19:55:00,56.4,49.3,29.85,SSE,164,0.0,4.0,77,0.00,,---,0.00,VWS V14.01,2013-03-23 02:55:00,
2013-03-22 20:00:00,56.2,49.1,29.86,South,173,0.0,5.0,77,0.00,,---,0.00,VWS V14.01,2013-03-23 03:00:00,
2013-03-22 20:05:00,56.0,48.9,29.86,South,172,4.0,4.0,77,0.00,,---,0.00,VWS V14.01,2013-03-23 03:05:00,
2013-03-22 20:10:00,55.8,48.7,29.86,South,172,4.0,4.0,77,0.00,,---,0.00,VWS V14.01,2013-03-23 03:10:00,
2013-03-22 20:15:00,55.5,48.4,29.86,SSE,167,2.0,5.0,77,0.00,,---,0.00,VWS V14.01,2013-03-23 03:15:00,
2013-03-22 20:20:00,55.4,48.3,29.87,SSE,167,0.0,2.0,77,0.00,,---,0.00,VWS V14.01,2013-03-23 03:20:00,
2013-03-22 20:25:00,55.1,48.4,29.87,SSE,167,0.0,2.0,78,0.00,,---,0.00,VWS V14.01,2013-03-23 03:25:00,
2013-03-22 20:30:00,55.0,48.3,29.87,SSE,167,0.0,4.0,78,0.00,,---,0.00,VWS V14.01,2013-03-23 03:30:00,
2013-03-22 20:35:00,54.8,48.1,29.87,SSE,167,0.0,2.0,78,0.00,,---,0.00,VWS V14.01,2013-03-23 03:35:00,
2013-03-22 20:40:00,54.6,47.9,29.87,SSE,167,0.0,2.0,78,0.00,,---,0.00,VWS V14.01,2013-03-23 03:40:00,
2013-03-22 20:45:00,54.5,48.1,29.88,SSE,167,0.0,2.0,79,0.00,,---,0.00,VWS V14.01,2013-03-23 03:45:00,
2013-03-22 20:50:00,54.5,47.8,29.88,SSE,167,0.0,0.0,78,0.00,,---,0.00,VWS V14.01,2013-03-23 03:50:00,
2013-03-22 20:55:00,54.3,47.9,29.88,SSE,167,0.0,0.0,79,0.00,,---,0.00,VWS V14.01,2013-03-23 03:55:00,
2013-03-22 21:00:00,54.1,47.7,29.88,SSE,167,0.0,0.0,79,0.00,,---,0.00,VWS V14.01,2013-03-23 04:00:00,
2013-03-22 21:05:00,53.9,47.5,29.88,SSE,167,0.0,0.0,79,0.00,,---,0.00,VWS V14.01,2013-03-23 04:05:00,
2013-03-22 21:10:00,53.7,47.3,29.88,SSE,167,0.0,0.0,79,0.00,,---,0.00,VWS V14.01,2013-03-23 04:10:00,
2013-03-22 21:15:00,53.5,47.5,29.88,SSE,167,0.0,0.0,80,0.00,,---,0.00,VWS V14.01,2013-03-23 04:15:00,
2013-03-22 21:20:00,53.3,47.3,29.89,SSE,165,0.0,0.0,80,0.00,,---,0.00,VWS V14.01,2013-03-23 04:20:00,
2013-03-22 21:25:00,53.2,47.2,29.89,SSE,167,0.0,0.0,80,0.00,,---,0.00,VWS V14.01,2013-03-23 04:25:00,
2013-03-22 21:30:00,53.1,47.1,29.89,SSE,167,0.0,0.0,80,0.00,,---,0.00,VWS V14.01,2013-03-23 04:30:00,
2013-03-22 21:35:00,53.0,47.3,29.89,SSE,167,0.0,0.0,81,0.00,,---,0.00,VWS V14.01,2013-03-23 04:35:00,
2013-03-22 21:40:00,52.9,47.2,29.89,SSE,167,0.0,1.0,81,0.00,,---,0.00,VWS V14.01,2013-03-23 04:40:00,
2013-03-22 21:45:00,52.8,47.1,29.89,SSE,167,2.0,2.0,81,0.00,,---,0.00,VWS V14.01,2013-03-23 04:45:00,
2013-03-22 21:50:00,52.8,47.1,29.88,SSE,167,0.0,2.0,81,0.00,,---,0.00,VWS V14.01,2013-03-23 04:50:00,
2013-03-22 21:55:00,52.8,47.1,29.89,SSE,167,0.0,2.0,81,0.00,,---,0.00,VWS V14.01,2013-03-23 04:55:00,
2013-03-22 22:00:00,52.8,47.1,29.89,SSE,154,0.0,3.0,81,0.00,,---,0.00,VWS V14.01,2013-03-23 05:00:00,
2013-03-22 22:05:00,52.6,46.6,29.89,SE,137,0.0,4.0,80,0.00,,---,0.00,VWS V14.01,2013-03-23 05:05:00,
2013-03-22 22:10:00,52.4,46.4,29.88,SE,137,0.0,4.0,80,0.00,,---,0.00,VWS V14.01,2013-03-23 05:10:00,
2013-03-22 22:15:00,52.1,46.1,29.88,SE,138,0.0,4.0,80,0.00,,---,0.00,VWS V14.01,2013-03-23 05:15:00,
2013-03-22 22:20:00,51.9,45.6,29.89,SE,138,0.0,2.0,79,0.00,,---,0.00,VWS V14.01,2013-03-23 05:20:00,
2013-03-22 22:25:00,51.6,45.3,29.89,SE,138,0.0,2.0,79,0.00,,---,0.00,VWS V14.01,2013-03-23 05:25:00,
2013-03-22 22:30:00,51.4,45.1,29.90,SE,138,0.0,0.0,79,0.00,,---,0.00,VWS V14.01,2013-03-23 05:30:00,
2013-03-22 22:35:00,51.2,44.9,29.90,SE,137,0.0,0.0,79,0.00,,---,0.00,VWS V14.01,2013-03-23 05:35:00,
2013-03-22 22:40:00,50.9,44.3,29.90,SE,137,0.0,0.0,78,0.00,,---,0.00,VWS V14.01,2013-03-23 05:40:00,
2013-03-22 22:46:00,50.8,44.5,29.90,SE,138,0.0,0.0,79,0.00,,---,0.00,VWS V14.01,2013-03-23 05:46:00,
2013-03-22 22:51:00,50.7,44.1,29.90,SE,138,0.0,0.0,78,0.00,,---,0.00,VWS V14.01,2013-03-23 05:51:00,
2013-03-22 22:56:00,50.7,43.8,29.90,SE,138,0.0,0.0,77,0.00,,---,0.00,VWS V14.01,2013-03-23 05:56:00,
2013-03-22 23:01:00,50.6,43.7,29.89,SE,138,0.0,0.0,77,0.00,,---,0.00,VWS V14.01,2013-03-23 06:01:00,
2013-03-22 23:06:00,50.6,43.7,29.89,SE,137,2.0,2.0,77,0.00,,---,0.00,VWS V14.01,2013-03-23 06:06:00,
2013-03-22 23:11:00,50.5,43.6,29.89,East,92,2.0,4.0,77,0.00,,---,0.00,VWS V14.01,2013-03-23 06:11:00,
2013-03-22 23:16:00,50.4,43.5,29.89,ENE,69,4.0,4.0,77,0.00,,---,0.00,VWS V14.01,2013-03-23 06:16:00,
2013-03-22 23:21:00,50.3,43.4,29.90,ENE,65,0.0,6.0,77,0.00,,---,0.00,VWS V14.01,2013-03-23 06:21:00,
2013-03-22 23:26:00,50.2,43.3,29.90,ENE,62,3.0,6.0,77,0.00,,---,0.00,VWS V14.01,2013-03-23 06:26:00,
2013-03-22 23:31:00,50.0,42.7,29.89,ENE,63,2.0,3.0,76,0.00,,---,0.00,VWS V14.01,2013-03-23 06:31:00,
2013-03-22 23:36:00,50.0,43.1,29.90,ENE,63,0.0,3.0,77,0.00,,---,0.00,VWS V14.01,2013-03-23 06:36:00,
2013-03-22 23:41:00,49.9,43.0,29.89,ENE,63,0.0,3.0,77,0.00,,---,0.00,VWS V14.01,2013-03-23 06:41:00,
2013-03-22 23:46:00,49.7,42.8,29.89,ENE,62,0.0,0.0,77,0.00,,---,0.00,VWS V14.01,2013-03-23 06:46:00,
2013-03-22 23:51:00,49.7,42.8,29.90,ENE,63,0.0,0.0,77,0.00,,---,0.00,VWS V14.01,2013-03-23 06:51:00,
2013-03-22 23:57:00,49.6,42.7,29.89,ENE,62,3.0,4.0,77,0.00,,---,0.00,VWS V14.01,2013-03-23 06:57:00,